createdAt,value
2019-01-04T05:44:33.691Z,-1.70
2019-01-04T05:47:03.180Z,-1.60
2019-01-04T05:49:32.353Z,-1.60
2019-01-04T05:52:01.604Z,-1.60
2019-01-04T05:54:30.775Z,-1.60
2019-01-04T05:56:59.966Z,-1.60
2019-01-04T05:59:29.198Z,-1.70
2019-01-04T06:01:58.395Z,-1.70
2019-01-04T06:04:27.566Z,-1.70
2019-01-04T06:06:56.745Z,-1.70
2019-01-04T06:09:25.968Z,-1.70
2019-01-04T06:11:55.287Z,-1.70
2019-01-04T06:14:24.572Z,-1.70
2019-01-04T06:16:53.743Z,-1.70
2019-01-04T06:19:22.983Z,-1.70
2019-01-04T06:21:52.242Z,-1.70
2019-01-04T06:24:21.491Z,-1.70
2019-01-04T06:26:50.684Z,-1.80
2019-01-04T06:29:19.859Z,-1.80
2019-01-04T06:31:49.023Z,-1.80
2019-01-04T06:34:18.213Z,-1.70
2019-01-04T06:36:47.435Z,-1.80
2019-01-04T06:39:16.686Z,-1.80
2019-01-04T06:41:45.913Z,-1.80
2019-01-04T06:44:15.117Z,-1.80
2019-01-04T06:47:21.600Z,-1.80
2019-01-04T06:49:51.714Z,-1.70
2019-01-04T06:52:23.840Z,-1.80
2019-01-04T06:55:43.605Z,-1.70
2019-01-04T06:58:13.108Z,-1.80
2019-01-04T07:00:42.539Z,-1.70
2019-01-04T07:03:12.653Z,-1.70
2019-01-04T07:05:42.101Z,-1.70
2019-01-04T07:08:11.323Z,-1.70
2019-01-04T07:10:42.051Z,-1.70
2019-01-04T07:13:11.433Z,-1.70
2019-01-04T07:15:40.655Z,-1.70
2019-01-04T07:18:09.923Z,-1.70
2019-01-04T07:20:39.122Z,-1.70
2019-01-04T07:23:08.574Z,-1.70
2019-01-04T07:25:37.806Z,-1.70
2019-01-04T07:28:07.226Z,-1.70
2019-01-04T07:30:36.612Z,-1.70
2019-01-04T07:33:05.802Z,-1.60
2019-01-04T07:35:35.100Z,-1.60
2019-01-04T07:38:04.569Z,-1.60
2019-01-04T07:40:33.809Z,-1.60
2019-01-04T07:43:03.068Z,-1.50
2019-01-04T07:45:32.577Z,-1.50
2019-01-04T07:48:01.764Z,-1.50
2019-01-04T07:50:31.132Z,-0.40
2019-01-04T07:53:00.371Z,0.20
2019-01-04T07:55:29.537Z,-0.20
2019-01-04T07:57:58.933Z,-0.40
2019-01-04T08:00:28.208Z,-0.70
2019-01-04T08:03:18.004Z,-0.80
2019-01-04T08:05:47.214Z,-1.00
2019-01-04T08:08:18.002Z,-1.00
2019-01-04T08:10:47.181Z,-1.00
2019-01-04T08:13:16.386Z,-1.10
2019-01-04T08:15:45.577Z,-1.00
2019-01-04T08:18:14.970Z,-1.00
2019-01-04T08:20:44.155Z,-1.10
2019-01-04T08:23:13.464Z,-1.10
2019-01-04T08:25:42.776Z,-1.10
2019-01-04T08:28:15.014Z,-1.10
2019-01-04T08:30:44.253Z,-1.10
2019-01-04T08:33:17.136Z,-1.10
2019-01-04T08:35:46.374Z,-1.10
2019-01-04T08:38:15.532Z,-1.00
2019-01-04T08:40:44.743Z,-1.10
2019-01-04T08:43:14.320Z,-1.10
2019-01-04T08:45:43.729Z,-1.10
2019-01-04T08:48:12.899Z,-1.00
2019-01-04T08:50:42.098Z,-0.90
2019-01-04T08:53:11.267Z,-0.90
2019-01-04T08:55:40.429Z,-0.90
2019-01-04T08:58:09.692Z,-0.80
2019-01-04T09:00:39.035Z,-0.80
2019-01-04T09:03:08.262Z,-0.80
2019-01-04T09:05:37.471Z,-0.80
2019-01-04T09:08:06.739Z,-0.80
2019-01-04T09:10:36.035Z,-0.80
2019-01-04T09:13:05.231Z,-0.80
2019-01-04T09:15:34.421Z,-0.70
2019-01-04T09:18:03.647Z,-0.70
2019-01-04T09:20:32.821Z,-0.70
2019-01-04T09:23:02.127Z,-0.70
2019-01-04T09:25:31.308Z,-0.70
2019-01-04T09:28:00.591Z,-0.70
2019-01-04T09:30:29.815Z,-0.80
2019-01-04T09:32:59.038Z,-0.80
2019-01-04T09:35:28.227Z,-0.80
2019-01-04T09:37:57.494Z,-0.80
2019-01-04T09:40:26.758Z,-0.80
2019-01-04T09:42:56.025Z,-0.90
2019-01-04T09:45:25.225Z,-0.80
2019-01-04T09:47:54.515Z,-0.80
2019-01-04T09:50:23.750Z,-0.70
2019-01-04T09:52:52.989Z,-0.70
2019-01-04T09:55:22.273Z,-0.50
2019-01-04T09:57:52.705Z,-0.50
2019-01-04T10:00:22.206Z,-0.40
2019-01-04T10:02:51.416Z,-0.30
2019-01-04T10:05:20.732Z,-0.40
2019-01-04T10:07:50.005Z,-0.30
2019-01-04T10:10:19.233Z,-0.40
2019-01-04T10:12:48.654Z,-0.30
2019-01-04T10:15:17.892Z,-0.20
2019-01-04T10:17:47.087Z,-0.20
2019-01-04T10:20:16.511Z,-0.30
2019-01-04T10:22:45.854Z,-0.20
2019-01-04T10:25:15.211Z,-0.20
2019-01-04T10:27:44.426Z,-0.30
2019-01-04T10:30:27.525Z,-0.20
2019-01-04T10:32:56.905Z,-0.20
2019-01-04T10:35:26.111Z,-0.20
2019-01-04T10:37:55.403Z,-0.10
2019-01-04T10:40:25.760Z,0.00
2019-01-04T10:42:54.972Z,0.00
2019-01-04T10:45:24.159Z,0.00
2019-01-04T10:47:53.584Z,0.10
2019-01-04T10:50:22.944Z,0.10
2019-01-04T10:52:52.106Z,0.10
2019-01-04T10:55:21.413Z,0.10
2019-01-04T10:57:50.604Z,0.10
2019-01-04T11:00:20.054Z,0.10
2019-01-04T11:02:49.300Z,0.10
2019-01-04T11:05:18.476Z,0.20
2019-01-04T11:07:47.876Z,0.20
2019-01-04T11:10:17.080Z,0.20
2019-01-04T11:12:46.255Z,0.10
2019-01-04T11:15:15.447Z,0.00
2019-01-04T11:17:44.829Z,0.00
2019-01-04T11:20:37.318Z,0.00
2019-01-04T11:23:29.459Z,-0.10
2019-01-04T11:26:06.431Z,-0.10
2019-01-04T11:28:53.765Z,-0.10
2019-01-04T11:31:32.653Z,-0.10
2019-01-04T11:34:44.761Z,-0.10
2019-01-04T11:37:53.294Z,-0.20
2019-01-04T11:40:54.258Z,-0.30
2019-01-04T11:43:58.957Z,-0.20
2019-01-04T11:46:59.520Z,-0.10
2019-01-04T11:49:57.984Z,-0.10
2019-01-04T11:52:42.823Z,0.00
2019-01-04T11:55:12.164Z,0.00
2019-01-04T11:57:41.438Z,0.10
2019-01-04T12:00:11.230Z,0.10
2019-01-04T12:02:40.636Z,0.10
2019-01-04T12:05:11.661Z,0.10
2019-01-04T12:07:40.961Z,0.00
2019-01-04T12:10:10.254Z,0.00
2019-01-04T12:12:39.578Z,0.00
2019-01-04T12:15:08.850Z,0.00
2019-01-04T12:17:38.183Z,-0.10
2019-01-04T12:20:08.156Z,-0.20
2019-01-04T12:22:37.518Z,-0.20
2019-01-04T12:25:06.718Z,-0.10
2019-01-04T12:27:35.910Z,0.00
2019-01-04T12:30:09.037Z,0.00
2019-01-04T12:32:38.317Z,0.00
2019-01-04T12:35:07.615Z,0.00
2019-01-04T12:37:36.890Z,0.10
2019-01-04T12:40:06.918Z,0.30
2019-01-04T12:42:36.143Z,0.30
2019-01-04T12:45:06.448Z,0.40
2019-01-04T12:47:36.181Z,0.30
2019-01-04T12:50:06.387Z,0.30
2019-01-04T12:52:35.659Z,0.20
2019-01-04T12:55:04.942Z,0.20
2019-01-04T12:57:34.160Z,0.10
2019-01-04T13:00:03.880Z,0.10
2019-01-04T13:02:33.173Z,0.10
2019-01-04T13:05:02.416Z,0.00
2019-01-04T13:07:31.618Z,-0.10
2019-01-04T13:10:00.927Z,0.00
2019-01-04T13:12:30.298Z,-0.10
2019-01-04T13:14:59.576Z,-0.10
2019-01-04T13:17:28.792Z,-0.20
2019-01-04T13:19:58.041Z,-0.20
2019-01-04T13:22:27.236Z,-0.20
2019-01-04T13:24:56.452Z,-0.10
2019-01-04T13:27:25.777Z,-0.10
2019-01-04T13:29:54.999Z,-0.10
2019-01-04T13:32:24.558Z,-0.10
2019-01-04T13:34:53.778Z,-0.20
2019-01-04T13:37:23.097Z,-0.20
2019-01-04T13:39:52.421Z,-0.10
2019-01-04T13:42:21.703Z,-0.20
2019-01-04T13:44:50.885Z,-0.20
2019-01-04T13:47:20.236Z,-0.20
2019-01-04T13:49:49.668Z,-0.30
2019-01-04T13:52:19.003Z,-0.30
2019-01-04T13:54:48.448Z,-0.30
2019-01-04T13:57:17.654Z,-0.30
2019-01-04T13:59:46.820Z,-0.40
2019-01-04T14:02:16.230Z,-0.40
2019-01-04T14:04:45.428Z,-0.30
2019-01-04T14:07:14.643Z,-0.40
2019-01-04T14:09:44.181Z,-0.30
2019-01-04T14:12:13.454Z,-0.40
2019-01-04T14:14:42.955Z,-0.40
2019-01-04T14:17:12.463Z,-0.40
2019-01-04T14:19:41.844Z,-0.40
2019-01-04T14:22:11.125Z,-0.40
2019-01-04T14:24:41.859Z,-0.40
2019-01-04T14:27:11.208Z,-0.40
2019-01-04T14:29:40.486Z,-0.30
2019-01-04T14:32:09.823Z,-0.40
2019-01-04T14:34:39.110Z,-0.50
2019-01-04T14:37:08.481Z,-0.50
2019-01-04T14:39:38.037Z,-0.50
2019-01-04T14:42:07.308Z,-0.40
2019-01-04T14:44:36.632Z,-0.50
2019-01-04T14:47:05.921Z,-0.60
2019-01-04T14:49:35.218Z,-0.60
2019-01-04T14:52:04.418Z,-0.60
2019-01-04T14:54:33.751Z,-0.60
2019-01-04T14:57:03.006Z,-0.60
2019-01-04T14:59:32.246Z,-0.70
2019-01-04T15:02:01.512Z,-0.70
2019-01-04T15:04:30.805Z,-0.70
2019-01-04T15:06:59.989Z,-0.70
2019-01-04T15:09:29.229Z,-0.80
2019-01-04T15:11:58.481Z,-0.80
2019-01-04T15:14:27.735Z,-0.80
2019-01-04T15:16:57.008Z,-0.80
2019-01-04T15:19:26.216Z,-0.80
2019-01-04T15:21:55.505Z,-0.90
2019-01-04T15:24:24.703Z,-0.90
2019-01-04T15:26:53.939Z,-0.90
2019-01-04T15:29:23.326Z,-0.90
2019-01-04T15:31:52.581Z,-0.80
2019-01-04T15:34:21.880Z,-0.90
2019-01-04T15:36:51.099Z,-0.90
2019-01-04T15:39:20.324Z,-0.90
2019-01-04T15:41:49.709Z,-0.90
2019-01-04T15:44:19.016Z,-0.90
2019-01-04T15:46:48.495Z,-0.90
2019-01-04T15:49:17.784Z,-0.90
2019-01-04T15:51:47.004Z,-0.90
2019-01-04T15:54:16.692Z,-0.90
2019-01-04T15:56:46.059Z,-0.90
2019-01-04T15:59:15.810Z,-0.90
2019-01-04T16:01:45.029Z,-0.90
2019-01-04T16:04:14.214Z,-0.90
2019-01-04T16:06:43.591Z,-0.90
2019-01-04T16:09:12.857Z,-0.90
2019-01-04T16:11:42.210Z,-1.00
2019-01-04T16:14:11.492Z,-0.90
2019-01-04T16:16:40.880Z,-0.90
2019-01-04T16:19:10.289Z,-0.90
2019-01-04T16:21:39.689Z,-1.00
2019-01-04T16:24:09.006Z,-1.00
2019-01-04T16:26:38.371Z,-1.00
2019-01-04T16:29:07.655Z,-1.00
2019-01-04T16:31:37.154Z,-0.90
2019-01-04T16:34:06.558Z,-1.00
2019-01-04T16:36:35.860Z,-1.00
2019-01-04T16:39:08.660Z,-1.00
2019-01-04T16:41:38.042Z,-0.90
2019-01-04T16:44:07.482Z,-1.00
2019-01-04T16:46:46.052Z,-0.90
2019-01-04T16:49:15.310Z,-0.90
2019-01-04T16:51:44.673Z,-0.90
2019-01-04T16:54:14.079Z,-1.00
2019-01-04T16:56:43.353Z,-0.90
2019-01-04T16:59:12.729Z,-0.90
2019-01-04T17:01:41.994Z,-0.90
2019-01-04T17:04:11.288Z,-0.90
2019-01-04T17:06:40.567Z,-0.90
2019-01-04T17:09:09.842Z,-0.90
2019-01-04T17:11:39.113Z,-0.80
2019-01-04T17:14:08.437Z,-0.90
2019-01-04T17:16:37.714Z,-0.90
2019-01-04T17:19:07.019Z,-0.90
2019-01-04T17:21:36.345Z,-1.00
2019-01-04T17:24:05.597Z,-1.00
2019-01-04T17:26:34.864Z,-1.00
2019-01-04T17:29:04.132Z,-1.00
2019-01-04T17:31:33.755Z,-1.00
2019-01-04T17:34:03.227Z,-1.00
2019-01-04T17:36:32.703Z,-1.00
2019-01-04T17:39:01.881Z,-1.00
2019-01-04T17:41:31.238Z,-1.00
2019-01-04T17:44:00.524Z,-1.00
2019-01-04T17:46:29.909Z,-1.00
2019-01-04T17:48:59.190Z,-1.00
2019-01-04T17:51:28.489Z,-1.00
2019-01-04T17:53:57.663Z,-1.00
2019-01-04T17:56:26.966Z,-1.00
2019-01-04T17:58:56.274Z,-1.00
2019-01-04T18:01:25.547Z,-1.00
2019-01-04T18:03:54.819Z,-1.00
2019-01-04T18:06:24.184Z,-1.00
2019-01-04T18:08:53.508Z,-1.00
2019-01-04T18:11:22.801Z,-1.00
2019-01-04T18:13:52.072Z,-1.00
2019-01-04T18:16:21.576Z,-1.00
2019-01-04T18:18:51.037Z,-1.00
2019-01-04T18:21:20.223Z,-0.90
2019-01-04T18:23:49.601Z,-1.00
2019-01-04T18:26:24.225Z,-1.00
2019-01-04T18:28:49.720Z,-1.00
2019-01-04T18:31:19.010Z,-0.90
2019-01-04T18:33:48.315Z,-0.90
2019-01-04T18:36:17.593Z,-0.90
2019-01-04T18:38:46.775Z,-0.80
2019-01-04T18:41:15.973Z,-0.90
2019-01-04T18:43:45.261Z,-0.90
2019-01-04T18:46:14.699Z,-0.90
2019-01-04T18:48:44.069Z,-0.90
2019-01-04T18:51:13.279Z,-0.80
2019-01-04T18:53:42.543Z,-0.80
2019-01-04T18:56:12.048Z,-0.80
2019-01-04T18:58:41.365Z,-0.80
2019-01-04T19:01:13.664Z,-0.80
2019-01-04T19:03:41.701Z,-0.70
2019-01-04T19:06:11.340Z,-0.80
2019-01-04T19:08:40.542Z,-0.70
2019-01-04T19:11:11.419Z,-0.70
2019-01-04T19:13:40.726Z,-0.70
2019-01-04T19:16:10.047Z,-0.70
2019-01-04T19:18:39.507Z,-0.80
2019-01-04T19:21:08.700Z,-0.80
2019-01-04T19:23:39.599Z,-0.80
2019-01-04T19:26:09.106Z,-0.80
2019-01-04T19:28:38.385Z,-0.80
2019-01-04T19:31:07.681Z,-0.80
2019-01-04T19:33:38.480Z,-0.80
2019-01-04T19:36:08.056Z,-0.90
2019-01-04T19:38:38.462Z,-0.80
2019-01-04T19:41:07.674Z,-0.80
2019-01-04T19:43:36.972Z,-0.80
2019-01-04T19:46:06.503Z,-0.80
2019-01-04T19:48:35.806Z,-0.80
2019-01-04T19:51:05.121Z,-0.80
2019-01-04T19:53:34.335Z,-0.70
2019-01-04T19:56:03.660Z,-0.80
2019-01-04T19:58:33.069Z,-0.80
2019-01-04T20:01:02.359Z,-0.70
2019-01-04T20:03:32.758Z,-0.70
2019-01-04T20:07:03.075Z,-0.70
2019-01-04T20:10:49.264Z,-0.70
2019-01-04T20:14:19.669Z,-0.70
2019-01-04T20:17:23.423Z,-0.70
2019-01-04T20:20:16.900Z,-0.70
2019-01-04T20:23:03.926Z,-0.70
2019-01-04T20:25:58.316Z,-0.70
2019-01-04T20:28:50.124Z,-0.80
2019-01-04T20:31:38.624Z,-0.80
2019-01-04T20:34:26.837Z,-0.70
2019-01-04T20:37:15.290Z,-0.70
2019-01-04T20:40:02.129Z,-0.80
2019-01-04T20:42:59.297Z,-0.80
2019-01-04T20:45:47.597Z,-0.80
2019-01-04T20:48:54.314Z,-0.80
2019-01-04T20:52:00.971Z,-0.80
2019-01-04T20:54:47.597Z,-0.80
2019-01-04T20:57:41.262Z,-0.80
2019-01-04T21:00:26.041Z,-0.80
2019-01-04T21:03:17.341Z,-0.80
2019-01-04T21:06:24.083Z,-0.80
2019-01-04T21:09:12.754Z,-0.70
2019-01-04T21:11:51.716Z,-0.80
2019-01-04T21:14:44.733Z,-0.80
2019-01-04T21:17:45.320Z,-0.80
2019-01-04T21:20:30.253Z,-0.80
2019-01-04T21:23:27.314Z,-0.80
2019-01-04T21:26:27.821Z,-0.80
2019-01-04T21:29:08.660Z,-0.80
2019-01-04T21:31:55.838Z,-0.80
2019-01-04T21:34:44.297Z,-0.90
2019-01-04T21:37:31.218Z,-0.80
2019-01-04T21:40:18.532Z,-0.80
2019-01-04T21:43:15.659Z,-0.90
2019-01-04T21:46:02.516Z,-0.80
2019-01-04T21:48:49.501Z,-0.80
2019-01-04T21:51:36.860Z,-0.80
2019-01-04T21:54:37.326Z,-0.80
2019-01-04T21:57:31.970Z,-0.80
2019-01-04T22:00:19.360Z,-0.80
2019-01-04T22:03:06.245Z,-0.90
2019-01-04T22:05:53.277Z,-0.90
2019-01-04T22:08:40.156Z,-0.80
2019-01-04T22:11:37.133Z,-0.80
2019-01-04T22:14:34.563Z,-0.80
2019-01-04T22:17:21.469Z,-0.90
2019-01-04T22:20:08.524Z,-0.90
2019-01-04T22:22:59.819Z,-0.80
2019-01-04T22:25:46.692Z,-0.90
2019-01-04T22:28:34.003Z,-0.80
